ADDS TAF Board (Experimental) INFO Settings
IDs: Format: Expanded Condensed

KLGA - New York/La Guardia, NY, US

Issued at 2337 UTC 02 Aug 2015
Updated at: 0025 UTC 03 Aug 2015
Time2351Z 03/01Z 03/02Z 03/03Z 03/04Z 03/05Z 03/06Z 03/07Z 03/08Z 03/09Z 03/10Z 03/11Z 03/12Z 03/13Z
Type OBS PRVL PRVL PRVL PRVL PRVL PRVL PRVL PRVL PRVL PRVL PRVL PRVL PRVL
VIS 10 >6 >6 >6 >6 >6 >6 >6 >6 >6 >6 >6 >6 >6
CIG -- -- -- -- -- -- -- -- -- -- -- -- -- --
Cover FEW SCT SCT SCT SCT SCT SCT SCT SCT SCT SCT SCT SCT SCT
FltCat VFR VFR VFR VFR VFR VFR VFR VFR VFR VFR VFR VFR VFR VFR
WX -- -- -- -- -- -- -- -- -- -- -- -- -- --
WDir 180 190 190 190 210 210 210 210 210 210 210 210 210 210
WSpd 12 9 9 9 6 6 6 6 6 6 6 6 6 6
WGst 17 -- -- -- -- -- -- -- -- -- -- -- -- --
R04/22
XWnd -6 -3 -3 -3 -0 -0 -0 -0 -0 -0 -0 -0 -0 -0
XGst -9 -- -- -- -- -- -- -- -- -- -- -- -- --
HWnd -10 -8 -8 -8 -6 -6 -6 -6 -6 -6 -6 -6 -6 -6
HGst -14 -- -- -- -- -- -- -- -- -- -- -- -- --
R13/31
XWnd -10 -8 -8 -8 -6 -6 -6 -6 -6 -6 -6 -6 -6 -6
XGst -14 -- -- -- -- -- -- -- -- -- -- -- -- --
HWnd 6 3 3 3 0 0 0 0 0 0 0 0 0 0
HGst 9 -- -- -- -- -- -- -- -- -- -- -- -- --

NOTE: TEMPO conditions in [brackets]. Keep in mind TEMPO conditions might be better (lower impact) than prevailing conditions.

Raw TAF
KLGA 022337Z 0300/0324 18012G18KT P6SM FEW060 SCT250
  FM030100 19009KT P6SM SCT250
  FM030400 21006KT P6SM SCT250
  FM031500 22012G18KT P6SM FEW070 SCT250
  FM031900 19016G22KT P6SM SCT070


Raw METAR
KLGA 022351Z 18012G17KT 10SM FEW250 27/16 A2987 RMK AO2 SLP113 T02720161 10317 20272 55003
KLGA 022251Z 18009KT 10SM FEW070 SCT250 29/16 A2986 RMK AO2 SLP112 T02890156
KLGA 022151Z 17012G19KT 10SM FEW060 SCT090 SCT180 SCT250 29/14 A2987 RMK AO2 SLP115 T02940144

METAR Board
Radar Display
Forecast Discussion

TAF Board Legend

Potential Impact
Threat None Slight Moderate High
Visibility (sm) ≥5.1 5.1>X≥3 3>X≥1 <1
Ceiling (100 ft) ≥30.1 30.1>X≥10 10>X≥5 <5
Wind Speed (kt) <10 10≤X<20 20≤X<30 ≥30
Wind Gust (kt) <15 15≤X<25 25≤X<35 ≥35
Weather No Wx Reported VCTS,-TS,-FZRA,SN TS,FZRA +TS,+FZRA,+SN